Time;durP1;ratioP1;P1;durP2;ratioP2;P2;SDS_P1;SDS_P2;PMS_P1;PMS_P2;Temp;Humidity;BMP_temperature;BMP_pressure;BME280_temperature;BME280_humidity;BME280_pressure;Samples;Min_cycle;Max_cycle;Signal;HPM_P1;HPM_P2
2021/12/06 00:01:58;;;;;;;26.30;17.92;;;;;;;1.39;100.00;101381.28;5031281;28;20057;-79
2021/12/06 00:04:32;;;;;;;25.13;17.92;;;;;;;1.40;100.00;101383.06;5061778;28;20409;-79
2021/12/06 00:07:04;;;;;;;25.30;18.05;;;;;;;1.41;100.00;101380.53;5000045;28;22315;-79
2021/12/06 00:09:33;;;;;;;30.13;20.88;;;;;;;1.45;100.00;101381.59;5058280;28;20041;-79
2021/12/06 00:12:02;;;;;;;28.35;19.38;;;;;;;1.47;100.00;101391.22;5002308;28;20545;-78
2021/12/06 00:14:35;;;;;;;27.77;19.52;;;;;;;1.48;100.00;101392.13;5024415;28;20520;-78
2021/12/06 00:17:10;;;;;;;25.42;19.42;;;;;;;1.50;100.00;101391.38;5056724;28;20075;-79
2021/12/06 00:19:40;;;;;;;33.65;22.10;;;;;;;1.50;100.00;101398.28;5043500;28;20493;-78
2021/12/06 00:22:15;;;;;;;32.83;21.33;;;;;;;1.48;100.00;101410.31;5034679;28;20572;-78
2021/12/06 00:24:43;;;;;;;31.33;21.05;;;;;;;1.50;100.00;101406.97;5016051;28;20401;-79
2021/12/06 00:27:12;;;;;;;33.35;20.75;;;;;;;1.51;100.00;101413.97;5049461;28;20053;-78
2021/12/06 00:29:41;;;;;;;29.92;21.05;;;;;;;1.52;100.00;101409.66;5034850;28;20044;-79
2021/12/06 00:32:10;;;;;;;32.45;21.15;;;;;;;1.50;100.00;101412.16;5051217;28;20032;-79
2021/12/06 00:34:39;;;;;;;29.15;20.33;;;;;;;1.48;100.00;101403.41;5067133;28;20045;-79
2021/12/06 00:37:20;;;;;;;31.48;21.63;;;;;;;1.48;100.00;101416.41;5061691;28;20242;-78
2021/12/06 00:39:54;;;;;;;36.75;22.83;;;;;;;1.49;100.00;101414.69;5009071;28;20147;-78
2021/12/06 00:42:27;;;;;;;32.15;21.83;;;;;;;1.49;100.00;101425.06;5052298;28;20059;-79
2021/12/06 00:44:56;;;;;;;32.40;21.35;;;;;;;1.50;100.00;101426.88;5045037;28;20055;-79
2021/12/06 00:47:25;;;;;;;34.22;22.13;;;;;;;1.48;100.00;101429.38;5055692;28;20056;-79
2021/12/06 00:49:54;;;;;;;30.33;20.77;;;;;;;1.48;100.00;101433.69;5057596;28;20063;-80
2021/12/06 00:52:23;;;;;;;34.50;22.63;;;;;;;1.48;100.00;101439.78;5021412;28;20060;-78
2021/12/06 00:54:53;;;;;;;35.58;23.90;;;;;;;1.49;100.00;101444.16;5014074;28;21585;-80
2021/12/06 00:57:21;;;;;;;40.08;23.70;;;;;;;1.51;100.00;101437.34;5065374;28;20037;-80
2021/12/06 00:59:51;;;;;;;35.78;24.02;;;;;;;1.52;100.00;101440.81;5030865;28;20045;-78
2021/12/06 01:02:20;;;;;;;32.25;22.50;;;;;;;1.52;100.00;101435.63;5055883;28;20052;-78
2021/12/06 01:04:51;;;;;;;38.45;24.25;;;;;;;1.53;100.00;101442.59;5048183;28;20690;-78
2021/12/06 01:07:20;;;;;;;36.72;23.30;;;;;;;1.54;100.00;101441.78;5068295;28;20039;-78
2021/12/06 01:09:49;;;;;;;35.20;22.55;;;;;;;1.54;100.00;101442.66;5015247;28;20063;-79
2021/12/06 01:12:17;;;;;;;34.85;23.15;;;;;;;1.56;100.00;101441.03;5042520;28;20041;-78
2021/12/06 01:14:46;;;;;;;37.58;23.60;;;;;;;1.56;100.00;101440.16;5049306;28;20045;-79
2021/12/06 01:17:14;;;;;;;35.53;22.85;;;;;;;1.54;100.00;101447.84;5045555;28;20043;-79
2021/12/06 01:19:43;;;;;;;36.67;23.88;;;;;;;1.53;100.00;101442.59;5044834;28;20045;-79
2021/12/06 01:22:32;;;;;;;36.72;24.15;;;;;;;1.53;100.00;101450.38;5039687;28;20036;-79
2021/12/06 01:25:05;;;;;;;34.85;22.38;;;;;;;1.53;100.00;101450.38;5003388;28;20056;-78
2021/12/06 01:39:19;;;;;;;36.22;23.73;;;;;;;1.53;100.00;101446.09;5050204;28;20044;-79
2021/12/06 01:41:26;;;;;;;34.47;22.33;;;;;;;1.55;100.00;101446.16;5017466;28;20041;-78
2021/12/06 01:44:21;;;;;;;38.13;23.47;;;;;;;1.55;100.00;101447.06;5036861;28;20518;-79
2021/12/06 01:47:06;;;;;;;36.78;23.45;;;;;;;1.59;100.00;101448.09;5052064;28;20071;-78
2021/12/06 01:49:43;;;;;;;38.63;21.88;;;;;;;1.60;100.00;101449.00;5046324;28;20044;-79
2021/12/06 01:52:25;;;;;;;32.63;22.00;;;;;;;1.58;100.00;101453.22;5043661;28;20044;-78
2021/12/06 01:54:55;;;;;;;39.95;24.83;;;;;;;1.58;100.00;101454.09;5039471;28;20045;-79
2021/12/06 01:57:27;;;;;;;35.30;22.02;;;;;;;1.58;100.00;101454.09;4999818;28;20056;-78
2021/12/06 01:59:57;;;;;;;35.05;22.98;;;;;;;1.59;100.00;101463.69;5042340;28;20281;-78
2021/12/06 02:02:28;;;;;;;33.53;21.38;;;;;;;1.59;100.00;101467.97;5008680;28;20597;-79
2021/12/06 02:04:57;;;;;;;38.80;23.20;;;;;;;1.61;100.00;101476.72;5056582;28;20513;-78
2021/12/06 02:07:28;;;;;;;35.47;23.35;;;;;;;1.64;100.00;101476.91;5052259;28;20067;-79
2021/12/06 02:09:58;;;;;;;;;;;;;;;1.65;100.00;101476.97;5067277;28;20382;-78
2021/12/06 02:12:32;;;;;;;33.67;22.25;;;;;;;1.65;100.00;101468.31;5012748;28;19928;-77
2021/12/06 02:15:11;;;;;;;39.10;24.20;;;;;;;1.66;100.00;101472.66;5058355;28;20044;-79
2021/12/06 02:17:44;;;;;;;35.95;23.42;;;;;;;1.68;100.00;101471.03;5062882;28;20044;-78
2021/12/06 02:20:23;;;;;;;36.17;23.73;;;;;;;1.69;100.00;101467.63;5035014;28;20041;-78
2021/12/06 02:22:53;;;;;;;38.55;23.98;;;;;;;1.67;100.00;101471.88;5056195;28;20041;-77
2021/12/06 02:25:22;;;;;;;36.53;22.27;;;;;;;1.65;100.00;101465.69;5031687;28;20258;-77
2021/12/06 02:27:52;;;;;;;38.20;22.60;;;;;;;1.67;100.00;101477.06;5008294;28;20037;-77
2021/12/06 02:30:26;;;;;;;38.13;23.17;;;;;;;1.68;100.00;101478.81;5057261;28;20056;-77
2021/12/06 02:32:54;;;;;;;39.20;22.90;;;;;;;1.68;100.00;101474.53;5060596;28;20021;-77
2021/12/06 02:35:24;;;;;;;36.55;22.63;;;;;;;1.71;100.00;101481.59;5050934;28;20067;-77
2021/12/06 02:37:57;;;;;;;39.70;23.02;;;;;;;1.69;100.00;101481.50;5059732;28;20509;-78
2021/12/06 02:40:31;;;;;;;42.25;22.80;;;;;;;1.69;100.00;101473.72;5047652;28;20088;-78
2021/12/06 02:43:05;;;;;;;38.15;23.17;;;;;;;1.72;100.00;101470.34;5042610;28;20048;-78
2021/12/06 02:45:34;;;;;;;41.35;24.73;;;;;;;1.75;100.00;101473.13;5040849;28;20600;-78
2021/12/06 02:48:06;;;;;;;46.28;25.38;;;;;;;1.75;100.00;101465.31;5050029;28;20493;-78
2021/12/06 02:50:44;;;;;;;44.30;24.95;;;;;;;1.76;100.00;101464.53;5059174;28;20052;-77
2021/12/06 02:53:14;;;;;;;44.55;23.17;;;;;;;1.75;100.00;101462.72;5040228;28;20029;-78
2021/12/06 02:55:44;;;;;;;41.78;24.20;;;;;;;1.73;100.00;101457.44;5055786;28;20515;-77
2021/12/06 02:58:45;;;;;;;49.30;27.02;;;;;;;1.72;100.00;101457.38;4995081;28;20045;-78
2021/12/06 03:01:15;;;;;;;46.47;25.58;;;;;;;1.70;100.00;101466.78;5062466;28;20057;-78
2021/12/06 03:03:45;;;;;;;49.55;28.05;;;;;;;1.70;100.00;101472.91;5059528;28;20494;-78
2021/12/06 03:06:14;;;;;;;48.25;26.10;;;;;;;1.71;100.00;101471.19;5025763;28;20398;-78
2021/12/06 03:08:55;;;;;;;52.65;27.27;;;;;;;1.69;100.00;101471.09;5046658;28;20502;-78
2021/12/06 03:11:30;;;;;;;47.20;26.75;;;;;;;1.68;100.00;101473.63;5051550;28;20032;-78
2021/12/06 03:13:59;;;;;;;44.55;24.92;;;;;;;1.66;100.00;101486.53;5004078;28;21772;-78
2021/12/06 03:16:28;;;;;;;44.20;25.60;;;;;;;1.63;100.00;101475.13;5064166;28;20496;-78
2021/12/06 03:18:58;;;;;;;52.88;28.40;;;;;;;1.63;100.00;101482.94;5063193;28;20036;-77
2021/12/06 03:21:27;;;;;;;49.47;25.98;;;;;;;1.62;100.00;101488.91;5048525;28;20045;-78
2021/12/06 03:23:57;;;;;;;46.42;27.08;;;;;;;1.60;100.00;101486.25;5037351;28;20036;-78
2021/12/06 03:26:27;;;;;;;47.72;26.90;;;;;;;1.59;100.00;101481.88;5051711;28;20401;-78
2021/12/06 03:28:57;;;;;;;48.40;26.98;;;;;;;1.56;100.00;101487.78;5007544;28;22449;-78
2021/12/06 03:31:26;;;;;;;46.53;25.93;;;;;;;1.56;100.00;101487.78;5061192;28;20506;-79
2021/12/06 03:33:57;;;;;;;52.58;27.73;;;;;;;1.57;100.00;101483.50;5043694;28;20589;-78
2021/12/06 03:36:30;;;;;;;52.50;28.60;;;;;;;1.53;100.00;101485.06;5034571;28;20049;-78
2021/12/06 03:39:04;;;;;;;53.42;27.45;;;;;;;1.50;100.00;101487.50;5052071;28;20425;-78
2021/12/06 03:41:33;;;;;;;52.00;28.30;;;;;;;1.52;100.00;101488.47;5038342;28;20045;-78
2021/12/06 03:44:06;;;;;;;49.92;27.90;;;;;;;1.52;100.00;101490.16;5036829;28;20037;-77
2021/12/06 03:46:37;;;;;;;54.85;29.75;;;;;;;1.53;100.00;101487.66;5023590;28;20056;-81
2021/12/06 03:49:12;;;;;;;40.92;22.38;;;;;;;1.53;100.00;101490.25;5034644;28;20055;-78
2021/12/06 03:51:43;;;;;;;50.30;27.10;;;;;;;1.52;100.00;101493.66;5041670;28;20048;-80
2021/12/06 03:54:19;;;;;;;53.45;27.65;;;;;;;1.53;100.00;101498.06;5050457;28;20040;-78
2021/12/06 03:56:48;;;;;;;45.17;26.25;;;;;;;1.53;100.00;101502.31;5058732;28;20036;-77
2021/12/06 03:59:17;;;;;;;54.63;28.23;;;;;;;1.55;100.00;101508.50;5054898;28;20052;-79
2021/12/06 04:01:48;;;;;;;52.55;27.40;;;;;;;1.57;100.00;101514.69;4996793;28;20432;-79
2021/12/06 04:04:21;;;;;;;50.10;27.10;;;;;;;1.58;100.00;101503.47;5031418;28;20033;-79
2021/12/06 04:06:50;;;;;;;56.15;29.10;;;;;;;1.57;100.00;101512.09;5034516;28;20237;-79
2021/12/06 04:09:20;;;;;;;56.38;29.33;;;;;;;1.57;100.00;101522.47;5050200;28;20371;-79
2021/12/06 04:11:50;;;;;;;54.38;28.83;;;;;;;1.56;100.00;101526.75;5057705;28;20228;-79
2021/12/06 04:14:19;;;;;;;50.70;29.25;;;;;;;1.57;100.00;101525.06;5043849;28;20040;-79
2021/12/06 04:16:48;;;;;;;53.45;28.30;;;;;;;1.58;100.00;101528.56;5014562;28;20555;-78
2021/12/06 04:19:18;;;;;;;53.22;29.15;;;;;;;1.56;100.00;101526.75;5045981;28;20032;-77
2021/12/06 04:21:47;;;;;;;49.17;28.40;;;;;;;1.60;100.00;101529.53;5049548;28;20044;-78
2021/12/06 04:24:16;;;;;;;51.47;28.75;;;;;;;1.60;100.00;101526.94;5042116;28;20040;-77
2021/12/06 04:26:49;;;;;;;47.00;26.17;;;;;;;1.59;100.00;101523.44;5063379;28;20276;-77
2021/12/06 04:29:19;;;;;;;43.55;26.52;;;;;;;1.59;100.00;101525.13;5044339;28;20048;-79
2021/12/06 04:31:53;;;;;;;46.75;25.23;;;;;;;1.56;100.00;101534.56;4997585;28;20654;-77
2021/12/06 04:34:23;;;;;;;46.03;26.30;;;;;;;1.53;100.00;101531.81;5044094;28;20037;-78
2021/12/06 04:36:52;;;;;;;47.05;28.50;;;;;;;1.54;100.00;101538.78;5052211;28;20288;-78
2021/12/06 04:39:22;;;;;;;44.50;26.73;;;;;;;1.58;100.00;101538.94;5049820;28;20044;-77
2021/12/06 04:41:52;;;;;;;43.83;25.85;;;;;;;1.59;100.00;101545.91;5058406;28;20383;-79
2021/12/06 04:44:21;;;;;;;46.97;25.45;;;;;;;1.60;100.00;101543.41;5055670;28;20041;-78
2021/12/06 04:46:50;;;;;;;44.33;24.70;;;;;;;1.60;100.00;101542.50;5012650;28;20052;-78
2021/12/06 04:49:20;;;;;;;45.67;25.88;;;;;;;1.61;100.00;101545.19;5040723;28;20029;-78
2021/12/06 04:51:54;;;;;;;44.95;24.88;;;;;;;1.62;100.00;101556.47;5061038;28;20599;-79
2021/12/06 04:54:30;;;;;;;41.58;24.35;;;;;;;1.61;100.00;101554.66;5054645;28;20040;-77
2021/12/06 04:57:10;;;;;;;44.75;25.25;;;;;;;1.61;100.00;101544.28;5066640;28;20040;-79
2021/12/06 04:59:55;;;;;;;35.17;20.42;;;;;;;1.62;100.00;101546.97;5058553;28;20041;-79
2021/12/06 05:02:28;;;;;;;51.90;28.15;;;;;;;1.64;100.00;101557.44;5046831;28;20044;-77
2021/12/06 05:05:08;;;;;;;50.25;27.73;;;;;;;1.65;100.00;101559.22;5026075;28;20032;-78
2021/12/06 05:07:46;;;;;;;49.00;26.23;;;;;;;1.64;100.00;101566.09;5046170;28;20048;-78
2021/12/06 05:10:16;;;;;;;47.05;25.92;;;;;;;1.67;100.00;101568.00;5049914;28;20375;-77
2021/12/06 05:12:46;;;;;;;42.85;25.38;;;;;;;1.67;100.00;101571.47;5051423;28;20044;-78
2021/12/06 05:15:16;;;;;;;47.83;27.83;;;;;;;1.67;100.00;101568.00;5048363;28;20360;-78
2021/12/06 05:17:45;;;;;;;50.03;27.65;;;;;;;1.67;100.00;101562.81;5015322;28;20052;-78
2021/12/06 05:20:16;;;;;;;51.58;27.17;;;;;;;1.67;100.00;101561.09;5023061;28;20041;-78
2021/12/06 05:22:47;;;;;;;49.22;26.40;;;;;;;1.66;100.00;101555.81;5036087;28;20177;-79
2021/12/06 05:25:16;;;;;;;52.05;27.27;;;;;;;1.66;100.00;101559.28;5055949;28;20070;-79
2021/12/06 05:27:47;;;;;;;47.20;26.48;;;;;;;1.66;100.00;101566.19;5061103;28;20060;-78
2021/12/06 05:30:16;;;;;;;49.58;28.75;;;;;;;1.70;100.00;101575.91;5052279;28;20043;-80
2021/12/06 05:32:49;;;;;;;47.33;26.50;;;;;;;1.71;100.00;101572.53;5044186;28;20383;-80
2021/12/06 05:35:19;;;;;;;53.95;27.55;;;;;;;1.72;100.00;101569.09;5013818;28;20037;-77
2021/12/06 05:37:53;;;;;;;47.10;26.67;;;;;;;1.73;100.00;101565.69;5056365;28;20029;-78
2021/12/06 05:40:25;;;;;;;51.17;28.23;;;;;;;1.71;100.00;101560.41;5037395;28;20039;-79
2021/12/06 05:42:55;;;;;;;50.97;27.75;;;;;;;1.69;100.00;101558.56;5060031;28;20075;-79
2021/12/06 05:45:27;;;;;;;38.08;22.08;;;;;;;1.65;100.00;101556.63;5058553;28;20060;-79
2021/12/06 05:47:56;;;;;;;45.97;27.08;;;;;;;1.63;100.00;101566.94;5053648;28;20642;-79
2021/12/06 05:50:25;;;;;;;46.50;27.13;;;;;;;1.60;100.00;101556.38;4996795;28;20052;-78
2021/12/06 05:52:54;;;;;;;46.88;26.45;;;;;;;1.59;100.00;101567.59;5015887;28;20044;-79
2021/12/06 05:55:29;;;;;;;52.95;28.85;;;;;;;1.59;100.00;101564.09;5046306;28;20033;-78
2021/12/06 05:58:03;;;;;;;49.28;28.33;;;;;;;1.58;100.00;101565.81;5050737;28;20230;-79
2021/12/06 06:00:32;;;;;;;50.15;28.23;;;;;;;1.59;100.00;101572.81;5062827;28;20056;-80
2021/12/06 06:03:10;;;;;;;44.50;24.80;;;;;;;1.59;100.00;101569.28;5043371;28;20348;-79
2021/12/06 06:05:39;;;;;;;49.85;26.27;;;;;;;1.55;100.00;101561.38;5009326;28;20049;-79
2021/12/06 06:08:08;;;;;;;47.65;27.13;;;;;;;1.54;100.00;101563.88;5049768;28;20037;-79
2021/12/06 06:10:37;;;;;;;44.47;24.52;;;;;;;1.54;100.00;101558.69;5043633;28;20443;-78
2021/12/06 06:13:08;;;;;;;48.00;26.60;;;;;;;1.55;100.00;101565.63;5079826;28;20052;-78
2021/12/06 06:15:37;;;;;;;;;;;;;;;1.52;100.00;101556.00;5044776;28;20064;-78
2021/12/06 06:18:06;;;;;;;45.10;22.88;;;;;;;1.52;100.00;101549.91;5061280;28;19928;-78
2021/12/06 06:20:49;;;;;;;45.75;25.15;;;;;;;1.49;100.00;101554.94;5040207;28;20045;-78
2021/12/06 06:23:23;;;;;;;49.47;26.50;;;;;;;1.50;100.00;101547.22;5066368;28;20045;-77
2021/12/06 06:25:52;;;;;;;47.75;25.55;;;;;;;1.47;100.00;101551.38;5010280;28;20796;-79
2021/12/06 06:28:20;;;;;;;48.95;26.58;;;;;;;1.45;100.00;101546.09;5050405;28;20045;-77
2021/12/06 06:30:48;;;;;;;48.28;25.70;;;;;;;1.44;100.00;101546.94;5043580;28;20048;-78
2021/12/06 06:33:18;;;;;;;45.97;25.50;;;;;;;1.42;100.00;101548.56;5049419;28;20401;-78
2021/12/06 06:35:47;;;;;;;47.25;24.92;;;;;;;1.43;100.00;101539.94;5024490;28;20513;-78
2021/12/06 06:38:17;;;;;;;52.05;26.90;;;;;;;1.42;100.00;101537.25;5018313;28;20037;-79
2021/12/06 06:40:46;;;;;;;48.92;25.88;;;;;;;1.40;100.00;101541.47;5037236;28;20178;-80
2021/12/06 06:43:16;;;;;;;42.55;22.77;;;;;;;1.38;100.00;101538.84;5045027;28;20045;-78
2021/12/06 06:45:45;;;;;;;44.88;23.88;;;;;;;1.35;100.00;101531.75;5030034;28;20546;-77
2021/12/06 06:48:16;;;;;;;42.08;23.10;;;;;;;1.34;100.00;101529.06;5061156;28;20055;-78
2021/12/06 06:50:45;;;;;;;44.17;23.52;;;;;;;1.32;100.00;101529.03;5028984;28;20044;-77
2021/12/06 06:53:13;;;;;;;43.17;23.05;;;;;;;1.32;100.00;101536.81;5015414;28;20060;-77
2021/12/06 06:55:42;;;;;;;46.42;24.98;;;;;;;1.33;100.00;101529.91;5050041;28;20045;-77
2021/12/06 06:58:16;;;;;;;44.80;23.20;;;;;;;1.32;100.00;101525.50;5045714;28;20502;-79
2021/12/06 07:00:45;;;;;;;46.75;24.55;;;;;;;1.27;100.00;101524.41;5042021;28;20060;-78
2021/12/06 07:03:14;;;;;;;51.67;25.83;;;;;;;1.26;100.00;101526.09;5058592;28;20049;-78
2021/12/06 07:05:43;;;;;;;50.28;25.15;;;;;;;1.24;100.00;101529.44;5022743;28;20510;-77
2021/12/06 07:08:12;;;;;;;46.25;24.95;;;;;;;1.23;100.00;101535.41;5009842;28;20049;-78
2021/12/06 07:10:41;;;;;;;52.30;25.02;;;;;;;1.24;100.00;101535.50;5037424;28;20056;-77
2021/12/06 07:13:11;;;;;;;47.53;25.38;;;;;;;1.25;100.00;101537.28;5047445;28;20037;-77
2021/12/06 07:15:40;;;;;;;;;;;;;;;1.26;100.00;101535.59;5039544;28;20351;-77
2021/12/06 07:18:08;;;;;;;48.58;25.85;;;;;;;1.25;100.00;101533.78;5038261;28;19924;-78
2021/12/06 07:20:37;;;;;;;50.10;25.67;;;;;;;1.25;100.00;101534.69;5032445;28;20099;-79
2021/12/06 07:23:06;;;;;;;49.45;26.45;;;;;;;1.26;100.00;101539.06;5059157;28;20047;-78
2021/12/06 07:25:35;;;;;;;49.03;27.05;;;;;;;1.26;100.00;101539.06;5000784;28;20041;-78
2021/12/06 07:28:07;;;;;;;54.13;26.10;;;;;;;1.27;100.00;101539.97;5041793;28;20045;-78
2021/12/06 07:30:35;;;;;;;49.33;25.95;;;;;;;1.23;100.00;101535.41;5051171;28;20048;-79
2021/12/06 07:33:05;;;;;;;52.05;27.63;;;;;;;1.23;100.00;101540.59;4996733;28;20053;-78
2021/12/06 07:35:34;;;;;;;56.13;27.48;;;;;;;1.23;100.00;101538.94;5036080;28;20047;-77
2021/12/06 07:38:05;;;;;;;48.67;24.40;;;;;;;1.24;100.00;101532.03;5050797;28;20079;-77
2021/12/06 07:40:34;;;;;;;53.50;27.17;;;;;;;1.23;100.00;101532.81;4981600;28;20037;-78
2021/12/06 07:43:03;;;;;;;56.75;28.10;;;;;;;1.24;100.00;101538.09;5036195;28;20517;-77
2021/12/06 07:45:32;;;;;;;53.95;26.45;;;;;;;1.24;100.00;101543.28;5020056;28;20053;-78
2021/12/06 07:48:00;;;;;;;52.70;26.65;;;;;;;1.26;100.00;101543.38;5047711;28;20406;-77
2021/12/06 07:50:29;;;;;;;53.20;25.92;;;;;;;1.30;100.00;101553.09;5030383;28;20398;-78
2021/12/06 07:52:58;;;;;;;50.72;26.15;;;;;;;1.32;100.00;101561.88;5020909;28;20060;-77
2021/12/06 07:55:30;;;;;;;49.92;25.10;;;;;;;1.33;100.00;101566.25;4981297;28;20068;-78
2021/12/06 07:57:59;;;;;;;53.15;26.20;;;;;;;1.31;100.00;101560.09;5034151;28;21265;-79
2021/12/06 08:00:29;;;;;;;52.00;25.13;;;;;;;1.33;100.00;101558.47;5048737;28;20056;-78
2021/12/06 08:02:58;;;;;;;50.53;27.55;;;;;;;1.34;100.00;101558.56;5021666;28;20501;-78
2021/12/06 08:05:31;;;;;;;53.58;26.35;;;;;;;1.35;100.00;101560.31;5042644;28;20053;-78
2021/12/06 08:08:15;;;;;;;45.80;23.95;;;;;;;1.38;100.00;101557.00;5043401;28;20033;-77
2021/12/06 08:10:49;;;;;;;49.33;25.20;;;;;;;1.40;100.00;101559.66;5004328;28;20513;-78
2021/12/06 08:13:24;;;;;;;49.83;25.80;;;;;;;1.40;100.00;101564.84;5060368;28;20045;-79
2021/12/06 08:15:56;;;;;;;47.35;24.35;;;;;;;1.41;100.00;101559.75;5038372;28;20056;-79
2021/12/06 08:18:24;;;;;;;57.28;28.38;;;;;;;1.44;100.00;101559.03;5049187;28;20411;-78
2021/12/06 08:20:53;;;;;;;52.47;27.02;;;;;;;1.44;100.00;101554.72;5051792;28;20033;-78
2021/12/06 08:23:21;;;;;;;53.03;27.58;;;;;;;1.47;100.00;101557.47;5035217;28;20079;-80
2021/12/06 08:25:51;;;;;;;48.95;25.30;;;;;;;1.44;100.00;101551.25;5006638;28;20041;-78
2021/12/06 08:28:22;;;;;;;52.23;26.53;;;;;;;1.45;100.00;101547.81;5058933;28;20047;-78
2021/12/06 08:30:52;;;;;;;49.83;25.90;;;;;;;1.45;100.00;101543.50;5044643;28;20040;-77
2021/12/06 08:33:21;;;;;;;54.60;26.55;;;;;;;1.48;100.00;101532.41;5054714;28;20371;-78
2021/12/06 08:35:52;;;;;;;53.28;26.48;;;;;;;1.49;100.00;101531.56;5037863;28;20037;-77
2021/12/06 08:38:24;;;;;;;52.05;27.00;;;;;;;1.51;100.00;101538.66;5031539;28;20474;-78
2021/12/06 08:40:55;;;;;;;61.10;29.40;;;;;;;1.52;100.00;101543.00;5060822;28;20033;-77
2021/12/06 08:43:24;;;;;;;60.50;30.60;;;;;;;1.53;100.00;101544.81;5024158;28;20036;-79
2021/12/06 08:46:03;;;;;;;59.78;28.95;;;;;;;1.54;100.00;101537.91;5041860;28;20115;-79
2021/12/06 08:48:34;;;;;;;58.92;29.90;;;;;;;1.55;100.00;101529.28;5061926;28;20049;-77
2021/12/06 08:51:13;;;;;;;59.28;28.15;;;;;;;1.58;100.00;101525.97;5061747;28;20039;-78
2021/12/06 08:53:43;;;;;;;56.13;27.52;;;;;;;1.58;100.00;101529.44;5041973;28;20044;-77
2021/12/06 08:56:12;;;;;;;56.75;28.85;;;;;;;1.55;100.00;101527.59;4999876;28;20080;-77
2021/12/06 08:58:41;;;;;;;61.13;29.05;;;;;;;1.59;100.00;101522.53;5081342;28;20048;-79
2021/12/06 09:01:10;;;;;;;55.13;26.85;;;;;;;1.59;100.00;101520.84;5045091;28;20072;-78
2021/12/06 09:03:59;;;;;;;62.42;30.17;;;;;;;1.60;100.00;101521.72;5069932;28;20375;-78
2021/12/06 09:06:28;;;;;;;55.05;27.50;;;;;;;1.61;100.00;101523.50;5029707;28;20029;-77
2021/12/06 09:08:57;;;;;;;59.30;28.33;;;;;;;1.62;100.00;101520.97;5006483;28;20044;-77
2021/12/06 09:11:26;;;;;;;58.05;28.33;;;;;;;1.62;100.00;101517.50;5059731;28;20533;-77
2021/12/06 09:13:55;;;;;;;60.42;29.52;;;;;;;1.63;100.00;101520.19;5004905;28;20486;-79
2021/12/06 09:16:23;;;;;;;63.63;28.52;;;;;;;1.66;100.00;101516.81;5047944;28;20202;-79
2021/12/06 09:18:53;;;;;;;63.03;28.85;;;;;;;1.68;100.00;101525.59;5041355;28;20505;-78
2021/12/06 09:21:22;;;;;;;62.30;28.85;;;;;;;1.73;100.00;101524.13;5047365;28;20313;-78
2021/12/06 09:23:51;;;;;;;56.35;27.17;;;;;;;1.75;100.00;101525.09;5053868;28;20044;-78
2021/12/06 09:26:23;;;;;;;64.05;29.40;;;;;;;1.75;100.00;101527.69;5031828;28;20037;-78
2021/12/06 09:28:51;;;;;;;54.83;27.08;;;;;;;1.75;100.00;101528.56;4991911;28;20040;-78
2021/12/06 09:31:20;;;;;;;59.15;28.85;;;;;;;1.79;100.00;101532.22;5055158;28;20037;-78
2021/12/06 09:33:49;;;;;;;59.45;29.13;;;;;;;1.81;100.00;101530.59;5025304;28;20033;-78
2021/12/06 09:36:20;;;;;;;58.35;27.23;;;;;;;1.83;100.00;101526.34;5047681;28;20236;-78
2021/12/06 09:38:49;;;;;;;60.58;28.08;;;;;;;1.80;100.00;101534.00;5055331;28;20037;-78
2021/12/06 09:41:23;;;;;;;55.15;26.33;;;;;;;1.82;100.00;101537.56;5048041;28;22738;-77
2021/12/06 09:43:55;;;;;;;59.70;26.85;;;;;;;1.85;100.00;101535.16;5034506;28;20505;-78
2021/12/06 09:46:25;;;;;;;51.80;26.30;;;;;;;1.84;100.00;101530.75;5022760;28;20041;-78
2021/12/06 09:48:54;;;;;;;60.93;26.73;;;;;;;1.87;100.00;101533.50;5048313;28;20036;-78
2021/12/06 09:51:26;;;;;;;48.58;25.25;;;;;;;1.87;100.00;101538.72;5060490;28;20310;-77
2021/12/06 09:53:57;;;;;;;49.67;24.65;;;;;;;1.88;100.00;101534.38;5022193;28;20055;-79
2021/12/06 09:56:36;;;;;;;56.90;24.10;;;;;;;1.91;100.00;101531.94;5045917;28;20045;-78
2021/12/06 09:59:10;;;;;;;47.50;23.52;;;;;;;1.92;100.00;101537.19;5031734;28;20029;-78
2021/12/06 10:01:47;;;;;;;48.80;23.33;;;;;;;1.95;100.00;101536.47;5013724;28;20044;-77
2021/12/06 10:04:22;;;;;;;52.90;24.40;;;;;;;1.95;100.00;101539.09;5046845;28;20615;-78
2021/12/06 10:06:51;;;;;;;45.30;23.98;;;;;;;1.94;100.00;101532.97;5035834;28;20053;-78
2021/12/06 10:09:21;;;;;;;51.53;22.90;;;;;;;1.95;100.00;101537.38;5065200;28;20045;-79
2021/12/06 10:11:52;;;;;;;49.00;23.63;;;;;;;1.96;100.00;101546.03;5042078;28;20052;-78
2021/12/06 10:14:22;;;;;;;45.78;23.33;;;;;;;1.93;100.00;101531.19;5048393;28;20037;-78
2021/12/06 10:16:50;;;;;;;48.25;22.85;;;;;;;1.95;100.00;101532.16;5003877;28;20529;-78
2021/12/06 10:19:21;;;;;;;47.58;23.55;;;;;;;1.97;100.00;101523.53;5035671;28;20067;-78
2021/12/06 10:21:49;;;;;;;48.30;24.25;;;;;;;1.99;100.00;101517.63;5059066;28;20049;-78
2021/12/06 10:24:26;;;;;;;46.25;22.60;;;;;;;1.99;100.00;101512.41;5046961;28;20036;-77
2021/12/06 10:27:24;;;;;;;52.30;24.55;;;;;;;1.98;100.00;101514.94;5056317;28;20056;-77
2021/12/06 10:29:59;;;;;;;48.53;23.27;;;;;;;1.97;100.00;101506.25;5045776;28;20041;-78
2021/12/06 10:32:32;;;;;;;40.03;21.83;;;;;;;2.00;100.00;101501.19;5031288;28;20044;-78
2021/12/06 10:35:05;;;;;;;47.55;23.92;;;;;;;2.00;100.00;101501.19;5033602;28;20045;-77
2021/12/06 10:37:59;;;;;;;48.30;22.73;;;;;;;2.03;100.00;101497.88;5059046;28;20486;-78
2021/12/06 10:40:38;;;;;;;44.20;23.23;;;;;;;2.05;100.00;101488.44;5043389;28;20051;-78
2021/12/06 10:43:11;;;;;;;49.42;24.58;;;;;;;2.08;100.00;101489.47;5050417;28;20036;-77
2021/12/06 10:45:47;;;;;;;48.75;24.55;;;;;;;2.09;100.00;101480.81;5027867;28;20052;-78
2021/12/06 10:48:22;;;;;;;55.97;25.77;;;;;;;2.10;100.00;101473.94;4997526;28;20047;-78
2021/12/06 10:50:50;;;;;;;45.58;23.85;;;;;;;2.12;100.00;101468.00;5022633;28;20083;-77
2021/12/06 10:53:35;;;;;;;45.25;21.48;;;;;;;2.12;100.00;101461.91;5027431;28;20045;-78
2021/12/06 10:56:16;;;;;;;46.28;23.05;;;;;;;2.12;100.00;101452.38;5064383;28;20045;-77
2021/12/06 10:58:50;;;;;;;40.67;21.70;;;;;;;2.13;100.00;101459.34;5059878;28;20051;-78
2021/12/06 11:01:31;;;;;;;46.67;21.33;;;;;;;2.12;100.00;101456.72;5050211;28;20033;-78
2021/12/06 11:04:04;;;;;;;39.65;20.80;;;;;;;2.16;100.00;101450.81;5011364;28;20056;-77
2021/12/06 11:06:41;;;;;;;42.40;22.55;;;;;;;2.19;100.00;101443.16;5055128;28;20040;-79
2021/12/06 11:09:16;;;;;;;41.40;22.15;;;;;;;2.19;100.00;101443.16;5037473;28;20497;-78
2021/12/06 11:11:50;;;;;;;40.75;20.85;;;;;;;2.17;100.00;101442.19;5040479;28;20545;-78
2021/12/06 11:14:22;;;;;;;36.22;20.00;;;;;;;2.12;100.00;101446.31;5057286;28;20379;-77
2021/12/06 11:16:58;;;;;;;38.00;20.95;;;;;;;2.13;100.00;101435.06;5056949;28;20072;-78
2021/12/06 11:19:29;;;;;;;39.33;20.35;;;;;;;2.12;100.00;101426.38;5015137;28;20041;-78
2021/12/06 11:22:05;;;;;;;40.50;18.95;;;;;;;2.14;100.00;101435.16;5069885;28;20059;-81
2021/12/06 11:24:51;;;;;;;35.03;19.65;;;;;;;2.14;100.00;101436.88;5049230;28;20147;-83
2021/12/06 11:27:37;;;;;;;35.45;19.40;;;;;;;2.12;100.00;101430.69;5056209;28;20060;-81
2021/12/06 11:30:11;;;;;;;34.15;18.65;;;;;;;2.10;100.00;101434.94;5034942;28;20039;-81
2021/12/06 11:32:46;;;;;;;32.38;19.02;;;;;;;2.09;100.00;101441.84;5052879;28;20049;-80
2021/12/06 11:35:18;;;;;;;36.97;19.90;;;;;;;2.05;100.00;101439.03;5004693;28;20045;-81
2021/12/06 11:37:52;;;;;;;36.95;20.52;;;;;;;2.02;100.00;101454.47;5063295;28;20261;-81
2021/12/06 11:40:27;;;;;;;37.72;20.38;;;;;;;2.01;100.00;101442.31;5040978;28;20041;-81
2021/12/06 11:43:07;;;;;;;48.92;24.05;;;;;;;2.02;100.00;101439.75;5049951;28;20052;-82